CYWK

Wabush Airport

Wabush, Canada
METAR CYWK 191700Z 22012G19KT 15SM FEW200 18/04 A3008 RMK CS2 SLP200 DENSITY ALT 2500FT
Observed Flight Rules
Aug-19 @ 17:00 UTC (11 minutes ago) Visual Flight Rules
Wind Visibility Clouds
220° at 12 knots
 Gusting to 19 knots
15 miles
  • Few at 20,000' AGL
Temperatures Readings
Current 18°C / 64°F
Dewpoint 4°C / 39°F
Humidity 40%
Altimeter 30.08" Hg
Pressure 1020 hPa
Elevation 551
METAR CYWK 191700Z 22012G19KT 15SM FEW200 18/04 A3008 RMK CS2 SLP200 DENSITY ALT 2500FT
Observed Flight Rules
Aug-19 @ 17:00 UTC
(11 minutes ago)
VFR
Wind Visibility
220° at 12 knots
 Gusting to 19 knots
15 miles
Clouds
  • Few at 20,000' AGL
Temperature Dewpoint
18°C / 64°F 4°C / 39°F
Humidity Altimeter Pressure
40% 30.08" Hg 1020 hPa